Bocholt, Belgium
Current Conditions -  °F | °C
As of 8:55 AM on Friday 24 Oct 2014 (Local Time) from EBBL Reporting Station
Broken Clouds Broken Clouds  
Wind Chill: 50°   Ceiling: 14000
Heat Index: 50°   Visibility: 6mi
Dew Point: 45°   Wind: 3mph
Humidity: 82%   Direction: 180°S
Pressure: 30.12"   Gusts: NA
Location:  51.17°N, 5.58°E
Report Text: EBBL 240655Z 18003KT 9999 FEW043 BKN140 10/07 Q1020 BLU BLU
Loading
Personal Weather Stations






























Interactive Weather Map
Tropical Storm Tracking
New forecast layout! Learn more

10-Day Weather Forecast

Advertisements
Track Severe Weather on mobile